Alat, Azerbaijan

9:17 PM AZST on October 02, 2014 (GMT +0500)
Bina | Change Station
CLOSE
Current Station
Airport
Location: Baku,
Elevation: 0 ft
Nearby Weather Stations

Elev 0 ft 40.45 °N, 50.07 °E | Updated 17 minutes ago

Overcast
Overcast
61 °F
Feels Like 61 °F
N
13
Wind Variable Wind from NNW

Today
High -- | Low -- °F
--% Chance of Precip.
Yesterday
High -- | Low -- °F
Precip. -- in
7:39 AM 7:23 PM
First Quarter, 60% visible
Pressure 30.30 in
Visibility 6.2 miles
Clouds Few 4500 ft
Overcast 4500 ft
Dew Point 52 °F
Humidity 72%
Rainfall 0.00 in
Snow Depth Not available.
UV 0 out of 12
Pollen Not available.
Air Quality Not available.
Flu Activity Not available.
METAR UBBB 021600Z 34011KT 9999 FEW045CB OVC045 16/11 Q1026 88CLRD70 NOSIG

More Conditions Fewer Conditions

Pressure 30.30 in
Visibility 6.2 miles
Clouds Few 4500 ft
Overcast 4500 ft
Dew Point 52 °F
Humidity 72%
Rainfall 0.00 in
Snow Depth Not available.
UV 0 out of 12
Pollen Not available.
Air Quality Not available.
Flu Activity Not available.
METAR UBBB 021600Z 34011KT 9999 FEW045CB OVC045 16/11 Q1026 88CLRD70 NOSIG

More Conditions Fewer Conditions

10-Day Weather Forecast

Almanac

Astronomy

Oct. 02, 2014 Rise Set
Actual Time 7:39 AM AZST 7:23 PM AZST
Civil Twilight 7:12 AM AZST 7:50 PM AZST
Nautical Twilight 6:40 AM AZST 8:21 PM AZST
Astronomical Twilight 6:09 AM AZST 8:53 PM AZST
Moon 3:10 PM AZST 12:32 AM AZST
Length of Visible Light 12h 38m
Length of Day
11h 44m
Tomorrow will be 2m 36s shorter.
First Quarter, 60% of the Moon is Illuminated
Today
First Quarter
Oct 8
Full
Oct 15
Last Quarter
Oct 23
New
Oct 30
First Quarter

Today's Extremes

Country Highs Country Lows

Community

WunderPhotos

Upload Photos

1,758,290 photos uploaded!

WunderBlogs® & News

Nearby

Snow Depth

Not available.

Earthquake Activity

City Distance Mag. Time & Date
No recent earthquake activity has been reported nearby.
Minimum magnitude displayed is 2.5.

Coastal Water Temperatures

Place Temperature
No Stations Reporting

Nearby Weather Stations